Autres sites météorologiques:

MétéotemplateWebsite of another weatherstation

Saratoga.org


Vous trouverez notre info météo également à:

European Weather Network

WeatherCloud

Weather Underground

French Weather Network

AWEKAS

HAMweather, WeatherForYou, PWS Weather



Pas de vigilance météorologique particulière.    Il n'y a aucun avertissement

Rapports METAR proches

   
EHVK - Volkel Rnlafb, Netherlands
Distance de la station :: SO 18 km
Mise à jour: 22-10-2019 05:26
Couvert  
Couvert  
   Vent: SSO 13 km/h
Vent: SSO 13 km/h
Température: 12°C
Point de rosée: 10°C
Hygromètrie: 88%
Pression: 1021 hPa
Nuageux: Couvert
visibilité: More than 10 km
Détails des nuages: Peu nuageux 1100 ft,
Couvert 2800 ft
EHVK 220326Z AUTO 20007KT 180V240 9999 FEW011 OVC028 12/10 Q1021 BLU
EDLV - Niederrhein, Germany
Distance de la station :: SE 25 km
Mise à jour: 22-10-2019 05:20
Partiellement nuageux  
Partiellement nuageux  
   Vent: Sud 9.3 km/h
Vent: Sud 9.3 km/h
Température: 12°C
Point de rosée: 10°C
Hygromètrie: 88%
Pression: 1021 hPa
Nuageux: Partiellement nuageux
visibilité: More than 10 km
Détails des nuages: Partiellement nuageux 1500 ft
EDLV 220320Z 18005KT 9999 SCT015 12/10 Q1021
EHDL - Deelen Rnlafb, Netherlands
Distance de la station :: N 35 km
Mise à jour: 22-10-2019 05:25
Brouillard, Couvert  
Brouillard, Couvert  
   Vent: SSO 11.1 km/h
Vent: SSO 11.1 km/h
Température: 12°C
Point de rosée: 11°C
Hygromètrie: 94%
Pression: 1020 hPa
Nuageux: Couvert
visibilité: 8 km
Détails des nuages: Peu nuageux 400 ft,
Nuageux 600 ft,
Couvert 700 ft
EHDL 220325Z AUTO 20006KT 150V250 8000 BR FEW004 BKN006 OVC007 12/11 Q1020 YLO
EHEH - Eindhoven Rnlafb, Netherlands
Distance de la station :: SO 48 km
Mise à jour: 22-10-2019 05:25
Nuageux  
Nuageux  
   Vent: Sud 11.1 km/h
Vent: Sud 11.1 km/h
Température: 12°C
Point de rosée: 11°C
Hygromètrie: 94%
Pression: 1021 hPa
Nuageux: Nuageux
visibilité: More than 10 km
Détails des nuages: Peu nuageux 800 ft,
Nuageux 900 ft,
Nuageux 1000 ft
EHEH 220325Z AUTO 19006KT 9999 FEW008 BKN009 BKN010 12/11 Q1021 GRN
EHGR - Gilze-Rijen Rnla, Netherlands
Distance de la station :: OSO 70 km
Mise à jour: 22-10-2019 05:26
Couvert  
Couvert  
   Vent: Sud 11.1 km/h
Vent: Sud 11.1 km/h
Température: 12°C
Point de rosée: 11°C
Hygromètrie: 94%
Pression: 1020 hPa
Nuageux: Couvert
visibilité: More than 10 km
Détails des nuages: Couvert 600 ft
EHGR 220326Z AUTO 19006KT 150V230 9999 OVC006 12/11 Q1020 YLO
EBBL - Kleine-Brogel(Ba, Belgium
Distance de la station :: SSO 71 km
Mise à jour: 22-10-2019 05:25
Brouillard, Couvert  
Brouillard, Couvert  
   Vent: SSO 9.3 km/h
Vent: SSO 9.3 km/h
Température: 11°C
Point de rosée: 11°C
Hygromètrie: 100%
Pression: 1022 hPa
Nuageux: Couvert
visibilité: 3 km
Détails des nuages: Couvert 700 ft
EBBL 220325Z AUTO 20005KT 3300 BR OVC007/// 11/11 Q1022 YLO

Script d'après  Saratoga-weather.org Adapté pour le modèle par  Weerstation Leuven